createdAt,value
2018-11-29T00:00:44.255Z,99.30
2018-11-29T00:03:12.255Z,99.30
2018-11-29T00:05:40.753Z,99.20
2018-11-29T00:08:08.911Z,99.20
2018-11-29T00:10:36.934Z,99.10
2018-11-29T00:13:05.283Z,99.10
2018-11-29T00:15:33.392Z,99.10
2018-11-29T00:18:01.459Z,99.10
2018-11-29T00:20:29.489Z,99.10
2018-11-29T00:22:57.493Z,99.00
2018-11-29T00:25:25.446Z,99.00
2018-11-29T00:27:53.755Z,99.00
2018-11-29T00:30:23.044Z,99.00
2018-11-29T00:32:52.147Z,99.00
2018-11-29T00:35:20.657Z,99.00
2018-11-29T00:37:49.174Z,99.00
2018-11-29T00:40:18.980Z,99.00
2018-11-29T00:42:47.709Z,98.90
2018-11-29T00:45:16.892Z,99.00
2018-11-29T00:47:45.576Z,98.90
2018-11-29T00:50:14.278Z,99.20
2018-11-29T00:52:43.125Z,98.80
2018-11-29T00:55:12.296Z,98.80
2018-11-29T00:57:40.416Z,99.20
2018-11-29T01:00:13.405Z,98.90
2018-11-29T01:02:41.452Z,98.90
2018-11-29T01:05:09.619Z,98.90
2018-11-29T01:07:37.596Z,99.00
2018-11-29T01:10:09.581Z,99.00
2018-11-29T01:12:37.610Z,99.10
2018-11-29T01:15:10.349Z,99.40
2018-11-29T01:17:38.345Z,99.20
2018-11-29T01:20:08.369Z,99.30
2018-11-29T01:22:36.370Z,99.40
2018-11-29T01:25:05.140Z,99.40
2018-11-29T01:27:33.221Z,99.80
2018-11-29T01:30:01.187Z,99.60
2018-11-29T01:32:29.135Z,99.60
2018-11-29T01:34:57.160Z,99.90
2018-11-29T01:37:25.140Z,99.60
2018-11-29T01:39:53.071Z,99.60
2018-11-29T01:42:21.050Z,99.60
2018-11-29T01:44:49.002Z,99.60
2018-11-29T01:47:16.942Z,99.60
2018-11-29T01:49:44.899Z,99.60
2018-11-29T01:52:12.940Z,99.50
2018-11-29T01:54:40.914Z,99.50
2018-11-29T01:57:08.850Z,99.50
2018-11-29T01:59:36.823Z,99.50
2018-11-29T02:02:05.054Z,99.90
2018-11-29T02:04:33.010Z,99.50
2018-11-29T02:07:00.974Z,99.40
2018-11-29T02:09:28.989Z,99.40
2018-11-29T02:11:56.980Z,99.40
2018-11-29T02:14:24.996Z,99.30
2018-11-29T02:16:52.998Z,99.30
2018-11-29T02:19:21.014Z,99.30
2018-11-29T02:21:49.034Z,99.20
2018-11-29T02:24:17.022Z,99.10
2018-11-29T02:26:44.987Z,99.00
2018-11-29T02:29:13.053Z,99.00
2018-11-29T02:31:41.015Z,98.90
2018-11-29T02:34:09.047Z,98.80
2018-11-29T02:36:37.099Z,98.80
2018-11-29T02:39:07.534Z,98.70
2018-11-29T02:41:35.503Z,98.80
2018-11-29T02:44:03.623Z,98.70
2018-11-29T02:46:31.627Z,98.60
2018-11-29T02:48:59.587Z,98.50
2018-11-29T02:51:27.579Z,98.50
2018-11-29T02:53:55.521Z,98.50
2018-11-29T02:56:23.573Z,98.50
2018-11-29T02:58:51.569Z,98.50
2018-11-29T03:01:19.570Z,98.50
2018-11-29T03:03:47.556Z,98.40
2018-11-29T03:06:15.555Z,98.50
2018-11-29T03:08:43.512Z,98.50
2018-11-29T03:11:11.495Z,98.50
2018-11-29T03:13:39.599Z,98.60
2018-11-29T03:16:07.657Z,98.50
2018-11-29T03:18:35.587Z,98.50
2018-11-29T03:21:03.571Z,98.60
2018-11-29T03:23:32.063Z,98.60
2018-11-29T03:26:00.442Z,98.60
2018-11-29T03:28:28.842Z,98.50
2018-11-29T03:30:57.348Z,98.60
2018-11-29T03:33:25.741Z,98.60
2018-11-29T03:35:57.531Z,98.60
2018-11-29T03:38:25.910Z,98.70
2018-11-29T03:40:54.184Z,98.70
2018-11-29T03:43:23.812Z,98.70
2018-11-29T03:45:52.350Z,98.60
2018-11-29T03:48:20.719Z,98.60
2018-11-29T03:50:52.522Z,98.70
2018-11-29T03:53:20.802Z,98.70
2018-11-29T03:55:49.424Z,98.70
2018-11-29T03:58:17.815Z,98.60
2018-11-29T04:00:46.328Z,98.60
2018-11-29T04:03:14.620Z,98.60
2018-11-29T04:05:42.991Z,98.60
2018-11-29T04:08:14.797Z,98.70
2018-11-29T04:10:43.059Z,98.60
2018-11-29T04:13:11.396Z,98.50
2018-11-29T04:15:39.673Z,98.60
2018-11-29T04:18:08.079Z,98.60
2018-11-29T04:20:36.379Z,98.50
2018-11-29T04:23:04.859Z,98.50
2018-11-29T04:25:33.287Z,98.60
2018-11-29T04:28:09.050Z,98.50
2018-11-29T04:30:37.463Z,98.50
2018-11-29T04:33:06.053Z,98.40
2018-11-29T04:35:34.559Z,98.20
2018-11-29T04:38:08.786Z,98.10
2018-11-29T04:40:37.261Z,98.10
2018-11-29T04:43:05.962Z,98.00
2018-11-29T04:45:45.644Z,98.20
2018-11-29T04:48:14.578Z,98.00
2018-11-29T04:50:43.058Z,98.00
2018-11-29T04:53:11.436Z,98.00
2018-11-29T04:55:40.980Z,98.00
2018-11-29T04:58:09.379Z,98.10
2018-11-29T05:00:37.776Z,98.20
2018-11-29T05:03:06.094Z,98.00
2018-11-29T05:05:34.488Z,98.00
2018-11-29T05:08:02.740Z,98.00
2018-11-29T05:10:31.342Z,97.90
2018-11-29T05:13:03.031Z,98.20
2018-11-29T05:15:31.453Z,97.70
2018-11-29T05:17:59.945Z,97.60
2018-11-29T05:20:28.351Z,97.50
2018-11-29T05:22:56.637Z,97.30
2018-11-29T05:25:25.697Z,97.20
2018-11-29T05:27:59.687Z,97.20
2018-11-29T05:30:28.079Z,97.10
2018-11-29T05:33:03.827Z,97.00
2018-11-29T05:35:32.246Z,97.00
2018-11-29T05:38:00.657Z,97.00
2018-11-29T05:40:29.154Z,96.90
2018-11-29T05:42:57.562Z,96.90
2018-11-29T05:45:26.044Z,96.90
2018-11-29T05:47:54.330Z,96.90
2018-11-29T05:50:22.748Z,96.80
2018-11-29T05:52:54.918Z,96.80
2018-11-29T05:55:23.432Z,96.80
2018-11-29T05:57:51.812Z,96.70
2018-11-29T06:00:23.993Z,96.70
2018-11-29T06:02:52.529Z,96.40
2018-11-29T06:05:21.129Z,96.80
2018-11-29T06:07:52.754Z,96.80
2018-11-29T06:10:21.094Z,96.70
2018-11-29T06:12:49.699Z,96.70
2018-11-29T06:15:18.301Z,96.70
2018-11-29T06:17:47.843Z,96.70
2018-11-29T06:20:17.856Z,96.60
2018-11-29T06:22:46.271Z,96.50
2018-11-29T06:25:14.774Z,96.20
2018-11-29T06:27:43.482Z,95.60
2018-11-29T06:30:17.805Z,95.60
2018-11-29T06:32:46.508Z,95.50
2018-11-29T06:35:17.054Z,95.40
2018-11-29T06:37:45.368Z,95.20
2018-11-29T06:40:14.266Z,95.10
2018-11-29T06:42:42.642Z,95.00
2018-11-29T06:45:15.760Z,94.90
2018-11-29T06:47:44.296Z,94.60
2018-11-29T06:50:13.384Z,94.90
2018-11-29T06:52:42.652Z,94.90
2018-11-29T06:55:14.473Z,94.80
2018-11-29T06:57:42.867Z,94.80
2018-11-29T07:00:21.079Z,94.80
2018-11-29T07:02:49.489Z,94.80
2018-11-29T07:05:17.774Z,94.70
2018-11-29T07:07:46.092Z,94.60
2018-11-29T07:10:24.521Z,94.60
2018-11-29T07:12:53.017Z,94.60
2018-11-29T07:15:21.293Z,94.60
2018-11-29T07:17:49.810Z,94.60
2018-11-29T07:20:18.358Z,94.70
2018-11-29T07:22:46.897Z,94.60
2018-11-29T07:25:15.628Z,94.40
2018-11-29T07:27:44.232Z,94.20
2018-11-29T07:30:18.159Z,94.00
2018-11-29T07:32:46.750Z,94.00
2018-11-29T07:35:15.857Z,93.80
2018-11-29T07:37:44.478Z,93.80
2018-11-29T07:40:20.382Z,93.90
2018-11-29T07:42:50.625Z,93.70
2018-11-29T07:45:19.758Z,93.70
2018-11-29T07:47:47.813Z,94.30
2018-11-29T07:50:16.933Z,95.70
2018-11-29T07:52:44.992Z,94.40
2018-11-29T07:55:14.267Z,92.50
2018-11-29T07:57:42.696Z,86.30
2018-11-29T08:00:12.908Z,77.80
2018-11-29T08:02:40.995Z,70.00
2018-11-29T08:05:11.074Z,60.30
2018-11-29T08:07:40.026Z,59.10
2018-11-29T08:10:12.454Z,56.90
2018-11-29T08:12:40.477Z,50.10
2018-11-29T08:15:09.933Z,46.20
2018-11-29T08:17:37.908Z,44.00
2018-11-29T08:20:11.472Z,44.60
2018-11-29T08:22:39.613Z,40.90
2018-11-29T08:25:08.413Z,41.20
2018-11-29T08:27:36.476Z,43.10
2018-11-29T08:30:07.670Z,44.20
2018-11-29T08:32:35.927Z,41.20
2018-11-29T08:35:03.947Z,39.60
2018-11-29T08:37:31.939Z,40.40
2018-11-29T08:39:59.955Z,40.80
2018-11-29T08:42:27.890Z,41.00
2018-11-29T08:44:55.863Z,39.20
2018-11-29T08:47:23.831Z,36.70
2018-11-29T08:49:51.796Z,37.00
2018-11-29T08:52:19.812Z,35.00
2018-11-29T08:54:47.864Z,35.30
2018-11-29T08:57:15.799Z,31.30
2018-11-29T08:59:43.784Z,31.30
2018-11-29T09:02:11.756Z,31.00
2018-11-29T09:04:39.703Z,31.70
2018-11-29T09:07:07.789Z,32.10
2018-11-29T09:09:35.799Z,31.30
2018-11-29T09:12:03.810Z,31.10
2018-11-29T09:14:31.785Z,30.60
2018-11-29T09:16:59.711Z,31.40
2018-11-29T09:19:27.606Z,31.30
2018-11-29T09:21:55.548Z,30.70
2018-11-29T09:24:23.517Z,30.90
2018-11-29T09:26:51.495Z,29.80
2018-11-29T09:29:19.466Z,30.00
2018-11-29T09:31:47.531Z,30.10
2018-11-29T09:34:15.466Z,32.60
2018-11-29T09:36:43.460Z,34.00
2018-11-29T09:39:11.415Z,34.90
2018-11-29T09:41:39.404Z,35.80
2018-11-29T09:44:07.429Z,36.70
2018-11-29T09:46:35.425Z,37.50
2018-11-29T09:49:03.386Z,38.30
2018-11-29T09:51:31.367Z,38.90
2018-11-29T09:53:59.300Z,39.30
2018-11-29T09:56:27.272Z,39.60
2018-11-29T09:58:55.259Z,39.80
2018-11-29T10:01:23.237Z,40.00
2018-11-29T10:03:51.166Z,40.50
2018-11-29T10:06:19.124Z,40.60
2018-11-29T10:08:47.139Z,40.90
2018-11-29T10:11:15.084Z,41.40
2018-11-29T10:13:46.213Z,41.80
2018-11-29T10:16:11.091Z,42.00
2018-11-29T10:18:39.092Z,42.40
2018-11-29T10:21:07.120Z,42.40
2018-11-29T10:23:35.122Z,42.60
2018-11-29T10:26:03.092Z,42.70
2018-11-29T10:28:31.068Z,42.70
2018-11-29T10:31:00.696Z,42.80
2018-11-29T10:33:28.660Z,42.70
2018-11-29T10:35:59.224Z,42.80
2018-11-29T10:38:24.738Z,42.90
2018-11-29T10:40:52.726Z,43.10
2018-11-29T10:43:20.786Z,43.30
2018-11-29T10:45:48.800Z,43.40
2018-11-29T10:48:18.479Z,43.30
2018-11-29T10:50:46.473Z,42.90
2018-11-29T10:53:14.421Z,42.80
2018-11-29T10:55:42.443Z,43.10
2018-11-29T10:58:10.401Z,43.50
2018-11-29T11:00:43.897Z,43.70
2018-11-29T11:03:17.379Z,43.70
2018-11-29T11:05:46.166Z,43.80
2018-11-29T11:08:14.101Z,43.60
2018-11-29T11:10:42.084Z,43.80
2018-11-29T11:13:10.136Z,43.70
2018-11-29T11:15:38.483Z,43.40
2018-11-29T11:18:07.614Z,43.10
2018-11-29T11:20:35.658Z,43.40
2018-11-29T11:23:03.706Z,43.30
2018-11-29T11:25:31.729Z,42.70
2018-11-29T11:27:59.753Z,42.80
2018-11-29T11:30:27.706Z,42.20
2018-11-29T11:32:55.679Z,42.40
2018-11-29T11:35:23.600Z,42.30
2018-11-29T11:37:51.541Z,41.80
2018-11-29T11:40:19.522Z,42.60
2018-11-29T11:42:47.524Z,42.20
2018-11-29T11:45:17.691Z,41.90
2018-11-29T11:47:45.738Z,42.20
2018-11-29T11:50:18.522Z,42.20
2018-11-29T11:52:46.575Z,42.50
2018-11-29T11:55:18.878Z,42.30
2018-11-29T11:57:43.341Z,42.40
2018-11-29T12:00:27.385Z,42.40
2018-11-29T12:02:57.655Z,42.50
2018-11-29T12:05:25.837Z,42.80
2018-11-29T12:07:53.892Z,42.30
2018-11-29T12:10:21.863Z,42.70
2018-11-29T12:12:49.933Z,42.90
2018-11-29T12:15:17.902Z,42.90
2018-11-29T12:17:46.717Z,42.70
2018-11-29T12:20:17.889Z,42.90
2018-11-29T12:22:45.995Z,43.10
2018-11-29T12:25:14.960Z,43.10
2018-11-29T12:27:43.055Z,43.40
2018-11-29T12:30:13.823Z,42.50
2018-11-29T12:32:41.981Z,42.10
2018-11-29T12:35:10.258Z,42.10
2018-11-29T12:37:38.339Z,42.10
2018-11-29T12:40:09.704Z,42.50
2018-11-29T12:42:37.681Z,42.10
2018-11-29T12:45:07.853Z,42.10
2018-11-29T12:47:35.929Z,41.90
2018-11-29T12:50:04.667Z,42.10
2018-11-29T12:52:32.702Z,42.20
2018-11-29T12:55:00.650Z,42.30
2018-11-29T12:57:28.671Z,42.50
2018-11-29T12:59:56.616Z,42.70
2018-11-29T13:02:24.713Z,42.80
2018-11-29T13:04:52.721Z,42.90
2018-11-29T13:07:20.699Z,43.10
2018-11-29T13:09:48.608Z,43.10
2018-11-29T13:12:16.580Z,43.30
2018-11-29T13:14:44.598Z,43.30
2018-11-29T13:17:12.567Z,43.40
2018-11-29T13:19:40.583Z,43.50
2018-11-29T13:22:08.633Z,43.60
2018-11-29T13:24:36.635Z,43.60
2018-11-29T13:27:04.653Z,43.80
2018-11-29T13:29:32.612Z,44.00
2018-11-29T13:32:00.598Z,44.10
2018-11-29T13:34:28.538Z,44.00
2018-11-29T13:36:56.534Z,44.00
2018-11-29T13:39:24.494Z,44.10
2018-11-29T13:41:52.573Z,44.10
2018-11-29T13:44:20.555Z,44.30
2018-11-29T13:46:48.580Z,45.20
2018-11-29T13:49:16.584Z,44.90
2018-11-29T13:51:44.662Z,45.00
2018-11-29T13:54:12.755Z,45.20
2018-11-29T13:56:40.777Z,45.50
2018-11-29T13:59:08.784Z,45.60
2018-11-29T14:01:36.864Z,45.80
2018-11-29T14:04:05.248Z,46.00
2018-11-29T14:06:33.230Z,46.20
2018-11-29T14:09:01.277Z,46.50
2018-11-29T14:11:29.230Z,46.60
2018-11-29T14:13:57.184Z,46.80
2018-11-29T14:16:25.162Z,46.90
2018-11-29T14:18:53.218Z,47.00
2018-11-29T14:21:22.078Z,47.20
2018-11-29T14:23:50.066Z,47.90
2018-11-29T14:26:18.022Z,47.40
2018-11-29T14:28:45.977Z,47.60
2018-11-29T14:31:13.998Z,47.70
2018-11-29T14:33:41.940Z,47.80
2018-11-29T14:36:09.979Z,48.00
2018-11-29T14:38:37.990Z,48.20
2018-11-29T14:41:06.823Z,48.40
2018-11-29T14:43:34.837Z,48.60
2018-11-29T14:46:02.782Z,48.90
2018-11-29T14:48:30.777Z,49.20
2018-11-29T14:51:02.406Z,49.40
2018-11-29T14:53:26.831Z,49.90
2018-11-29T14:55:54.825Z,50.10
2018-11-29T14:58:22.808Z,50.50
2018-11-29T15:00:50.766Z,50.70
2018-11-29T15:03:21.016Z,50.90
2018-11-29T15:05:49.013Z,51.20
2018-11-29T15:08:16.983Z,51.50
2018-11-29T15:10:45.001Z,51.60
2018-11-29T15:13:13.305Z,51.70
2018-11-29T15:15:41.978Z,51.80
2018-11-29T15:18:10.809Z,51.80
2018-11-29T15:20:40.377Z,52.10
2018-11-29T15:23:09.230Z,52.20
2018-11-29T15:25:37.356Z,52.20
2018-11-29T15:28:05.369Z,52.20
2018-11-29T15:30:33.457Z,52.50
2018-11-29T15:33:01.474Z,52.70
2018-11-29T15:35:29.489Z,53.00
2018-11-29T15:37:57.510Z,53.40
2018-11-29T15:40:25.549Z,53.60
2018-11-29T15:42:53.945Z,53.80
2018-11-29T15:45:26.225Z,53.90
2018-11-29T15:47:54.502Z,54.00
2018-11-29T15:50:22.534Z,54.20
2018-11-29T15:52:50.735Z,54.50
2018-11-29T15:55:19.827Z,54.90
2018-11-29T15:57:48.611Z,55.30
2018-11-29T16:00:23.814Z,55.50
2018-11-29T16:02:52.397Z,55.60
2018-11-29T16:05:20.394Z,55.70
2018-11-29T16:07:48.465Z,55.90
2018-11-29T16:10:19.653Z,55.90
2018-11-29T16:12:47.663Z,56.10
2018-11-29T16:15:16.679Z,56.20
2018-11-29T16:17:45.470Z,56.40
2018-11-29T16:20:17.178Z,56.40
2018-11-29T16:22:44.995Z,56.60
2018-11-29T16:25:13.012Z,56.50
2018-11-29T16:27:41.428Z,56.50
2018-11-29T16:30:15.416Z,56.60
2018-11-29T16:32:43.419Z,56.50
2018-11-29T16:35:11.386Z,56.50
2018-11-29T16:37:39.599Z,56.50
2018-11-29T16:40:08.634Z,56.40
2018-11-29T16:42:36.752Z,56.40
2018-11-29T16:45:09.171Z,56.40
2018-11-29T16:47:37.160Z,56.30
2018-11-29T16:50:06.497Z,56.20
2018-11-29T16:52:34.574Z,56.10
2018-11-29T16:55:02.689Z,56.10
2018-11-29T16:57:30.587Z,56.00
2018-11-29T16:59:58.588Z,56.00
2018-11-29T17:02:26.576Z,56.00
2018-11-29T17:04:54.627Z,55.70
2018-11-29T17:07:22.575Z,55.80
2018-11-29T17:09:50.591Z,55.80
2018-11-29T17:12:20.767Z,55.80
2018-11-29T17:14:50.121Z,55.70
2018-11-29T17:17:18.391Z,55.70
2018-11-29T17:19:46.455Z,55.80
2018-11-29T17:22:14.414Z,55.80
2018-11-29T17:24:42.403Z,55.80
2018-11-29T17:27:10.375Z,55.80
2018-11-29T17:29:38.384Z,55.70
2018-11-29T17:32:06.402Z,55.80
2018-11-29T17:34:34.514Z,55.80
2018-11-29T17:37:02.540Z,56.30
2018-11-29T17:39:30.600Z,55.70
2018-11-29T17:41:58.590Z,55.60
2018-11-29T17:44:26.653Z,55.60
2018-11-29T17:46:54.700Z,55.60
2018-11-29T17:49:22.672Z,55.60
2018-11-29T17:51:53.693Z,55.60
2018-11-29T17:54:18.811Z,56.00
2018-11-29T17:56:47.470Z,55.40
2018-11-29T17:59:15.540Z,55.40
2018-11-29T18:01:43.595Z,55.30
2018-11-29T18:04:11.670Z,55.30
2018-11-29T18:06:40.376Z,55.50
2018-11-29T18:09:11.023Z,55.60
2018-11-29T18:11:39.818Z,55.80
2018-11-29T18:14:08.787Z,55.90
2018-11-29T18:16:37.115Z,56.10
2018-11-29T18:19:05.337Z,56.20
2018-11-29T18:21:33.577Z,56.40
2018-11-29T18:24:01.780Z,56.50
2018-11-29T18:26:29.899Z,56.70
2018-11-29T18:28:58.481Z,56.80
2018-11-29T18:31:27.266Z,56.90
2018-11-29T18:33:55.482Z,57.10
2018-11-29T18:36:24.782Z,57.20
2018-11-29T18:38:52.892Z,57.30
2018-11-29T18:41:21.989Z,57.50
2018-11-29T18:43:50.411Z,57.60
2018-11-29T18:46:18.819Z,57.80
2018-11-29T18:48:46.917Z,57.90
2018-11-29T18:51:15.054Z,58.20
2018-11-29T18:53:43.149Z,58.40
2018-11-29T18:56:12.971Z,58.50
2018-11-29T18:58:41.067Z,58.70
2018-11-29T19:01:09.798Z,58.80
2018-11-29T19:03:37.776Z,58.90
2018-11-29T19:06:06.498Z,59.10
2018-11-29T19:08:34.629Z,59.20
2018-11-29T19:11:04.175Z,59.60
2018-11-29T19:13:32.990Z,59.80
2018-11-29T19:16:02.244Z,60.10
2018-11-29T19:18:31.456Z,60.40
2018-11-29T19:21:00.452Z,60.90
2018-11-29T19:23:30.246Z,61.10
2018-11-29T19:25:59.370Z,61.70
2018-11-29T19:28:28.280Z,61.70
2018-11-29T19:30:57.404Z,62.20
2018-11-29T19:33:36.118Z,62.70
2018-11-29T19:36:06.155Z,62.80
2018-11-29T19:38:34.510Z,63.30
2018-11-29T19:41:03.013Z,63.80
2018-11-29T19:43:33.555Z,65.20
2018-11-29T19:46:02.001Z,65.20
2018-11-29T19:48:30.159Z,65.30
2018-11-29T19:51:01.146Z,65.50
2018-11-29T19:53:29.340Z,66.00
2018-11-29T19:55:59.429Z,66.10
2018-11-29T19:58:29.128Z,66.70
2018-11-29T20:00:58.143Z,66.90
2018-11-29T20:03:28.011Z,67.30
2018-11-29T20:05:58.112Z,68.40
2018-11-29T20:08:28.108Z,68.00
2018-11-29T20:10:57.410Z,67.90
2018-11-29T20:13:26.284Z,68.10
2018-11-29T20:15:58.312Z,68.30
2018-11-29T20:18:27.252Z,68.50
2018-11-29T20:20:56.402Z,68.60
2018-11-29T20:23:25.737Z,68.90
2018-11-29T20:25:55.779Z,69.10
2018-11-29T20:28:24.965Z,69.20
2018-11-29T20:30:57.479Z,69.20
2018-11-29T20:33:27.824Z,69.40
2018-11-29T20:35:56.818Z,69.50
2018-11-29T20:38:25.239Z,69.50
2018-11-29T20:40:53.967Z,69.70
2018-11-29T20:43:23.345Z,69.90
2018-11-29T20:45:58.214Z,70.00
2018-11-29T20:48:29.430Z,70.30
2018-11-29T20:50:59.537Z,70.50
2018-11-29T20:53:33.349Z,70.70
2018-11-29T20:56:01.799Z,70.80
2018-11-29T20:58:30.274Z,70.90
2018-11-29T21:00:58.866Z,71.20
2018-11-29T21:03:30.374Z,71.20
2018-11-29T21:06:00.068Z,71.40
2018-11-29T21:08:28.452Z,71.60
2018-11-29T21:10:57.063Z,71.60
2018-11-29T21:13:25.668Z,71.80
2018-11-29T21:15:53.778Z,71.90
2018-11-29T21:18:21.897Z,72.20
2018-11-29T21:20:49.995Z,72.40
2018-11-29T21:23:17.938Z,72.50
2018-11-29T21:25:46.303Z,72.60
2018-11-29T21:28:14.434Z,72.70
2018-11-29T21:30:42.939Z,72.70
2018-11-29T21:33:11.767Z,73.10
2018-11-29T21:35:40.356Z,73.20
2018-11-29T21:38:15.355Z,73.40
2018-11-29T21:40:48.230Z,73.50
2018-11-29T21:43:16.688Z,73.90
2018-11-29T21:45:45.174Z,74.00
2018-11-29T21:48:13.792Z,74.10
2018-11-29T21:50:42.400Z,74.20
2018-11-29T21:53:10.677Z,74.30
2018-11-29T21:55:39.415Z,74.70
2018-11-29T21:58:08.054Z,75.00
2018-11-29T22:00:36.586Z,75.90
2018-11-29T22:03:05.220Z,75.10
2018-11-29T22:05:37.603Z,75.40
2018-11-29T22:08:06.105Z,75.60
2018-11-29T22:10:34.709Z,75.80
2018-11-29T22:13:03.187Z,75.80
2018-11-29T22:15:31.713Z,76.10
2018-11-29T22:18:30.999Z,76.30
2018-11-29T22:21:00.717Z,76.30
2018-11-29T22:23:29.382Z,76.30
2018-11-29T22:25:58.976Z,76.30
2018-11-29T22:28:27.361Z,76.20
2018-11-29T22:30:55.862Z,76.10
2018-11-29T22:33:30.398Z,76.10
2018-11-29T22:35:58.718Z,76.00
2018-11-29T22:38:27.608Z,75.80
2018-11-29T22:40:56.079Z,75.60
2018-11-29T22:43:24.510Z,75.60
2018-11-29T22:45:52.774Z,75.30
2018-11-29T22:48:21.198Z,75.00
2018-11-29T22:50:49.601Z,75.00
2018-11-29T22:53:17.999Z,74.90
2018-11-29T22:55:46.535Z,74.50
2018-11-29T22:58:15.007Z,74.20
2018-11-29T23:00:51.387Z,74.00
2018-11-29T23:03:19.802Z,74.00
2018-11-29T23:05:48.364Z,73.70
2018-11-29T23:08:16.891Z,73.70
2018-11-29T23:10:48.486Z,73.70
2018-11-29T23:13:16.855Z,73.50
2018-11-29T23:15:45.853Z,73.50
2018-11-29T23:18:14.285Z,73.70
2018-11-29T23:20:46.356Z,73.60
2018-11-29T23:23:14.957Z,73.70
2018-11-29T23:25:43.369Z,73.90
2018-11-29T23:28:15.889Z,73.90
2018-11-29T23:30:44.153Z,74.00
2018-11-29T23:33:12.533Z,74.30
2018-11-29T23:35:41.049Z,74.40
2018-11-29T23:38:09.257Z,74.30
2018-11-29T23:40:37.744Z,74.50
2018-11-29T23:43:06.350Z,74.50
2018-11-29T23:45:34.705Z,74.50
2018-11-29T23:48:03.149Z,74.30
2018-11-29T23:50:31.722Z,74.40
2018-11-29T23:53:00.248Z,74.60
2018-11-29T23:55:28.748Z,74.80
2018-11-29T23:57:57.288Z,75.20
